sensor_id;sensor_type;location;lat;lon;timestamp;P1;durP1;ratioP1;P2;durP2;ratioP2
10509;SDS011;5303;53.266;10.410;2023-07-31T00:02:22;4.67;;;2.53;;
10509;SDS011;5303;53.266;10.410;2023-07-31T00:04:47;5.27;;;2.30;;
10509;SDS011;5303;53.266;10.410;2023-07-31T00:07:14;6.83;;;2.60;;
10509;SDS011;5303;53.266;10.410;2023-07-31T00:09:39;4.47;;;2.33;;
10509;SDS011;5303;53.266;10.410;2023-07-31T00:12:04;3.43;;;2.37;;
10509;SDS011;5303;53.266;10.410;2023-07-31T00:14:30;4.63;;;2.40;;
10509;SDS011;5303;53.266;10.410;2023-07-31T00:16:55;3.00;;;2.20;;
10509;SDS011;5303;53.266;10.410;2023-07-31T00:19:20;4.97;;;2.27;;
10509;SDS011;5303;53.266;10.410;2023-07-31T00:21:46;4.33;;;2.33;;
10509;SDS011;5303;53.266;10.410;2023-07-31T00:24:11;3.50;;;2.20;;
10509;SDS011;5303;53.266;10.410;2023-07-31T00:26:36;3.30;;;2.00;;
10509;SDS011;5303;53.266;10.410;2023-07-31T00:29:01;3.03;;;2.23;;
10509;SDS011;5303;53.266;10.410;2023-07-31T00:31:27;5.53;;;2.30;;
10509;SDS011;5303;53.266;10.410;2023-07-31T00:33:52;3.40;;;2.50;;
10509;SDS011;5303;53.266;10.410;2023-07-31T00:36:17;3.97;;;2.30;;
10509;SDS011;5303;53.266;10.410;2023-07-31T00:38:43;4.57;;;2.33;;
10509;SDS011;5303;53.266;10.410;2023-07-31T00:41:08;5.60;;;2.40;;
10509;SDS011;5303;53.266;10.410;2023-07-31T00:43:33;5.00;;;2.70;;
10509;SDS011;5303;53.266;10.410;2023-07-31T00:45:59;7.00;;;2.47;;
10509;SDS011;5303;53.266;10.410;2023-07-31T00:48:24;4.40;;;2.27;;
10509;SDS011;5303;53.266;10.410;2023-07-31T00:50:50;5.23;;;2.60;;
10509;SDS011;5303;53.266;10.410;2023-07-31T00:53:16;7.57;;;2.50;;
10509;SDS011;5303;53.266;10.410;2023-07-31T00:55:42;5.50;;;2.70;;
10509;SDS011;5303;53.266;10.410;2023-07-31T00:58:08;2.73;;;2.00;;
10509;SDS011;5303;53.266;10.410;2023-07-31T01:00:33;6.87;;;2.87;;
10509;SDS011;5303;53.266;10.410;2023-07-31T01:02:58;5.10;;;3.00;;
10509;SDS011;5303;53.266;10.410;2023-07-31T01:05:30;4.87;;;2.53;;
10509;SDS011;5303;53.266;10.410;2023-07-31T01:08:18;4.57;;;2.83;;
10509;SDS011;5303;53.266;10.410;2023-07-31T01:11:00;5.17;;;2.70;;
10509;SDS011;5303;53.266;10.410;2023-07-31T01:13:32;4.30;;;2.40;;
10509;SDS011;5303;53.266;10.410;2023-07-31T01:15:57;6.37;;;2.70;;
10509;SDS011;5303;53.266;10.410;2023-07-31T01:18:23;5.17;;;2.83;;
10509;SDS011;5303;53.266;10.410;2023-07-31T01:20:51;4.23;;;2.47;;
10509;SDS011;5303;53.266;10.410;2023-07-31T01:26:31;4.57;;;2.77;;
10509;SDS011;5303;53.266;10.410;2023-07-31T01:29:10;4.60;;;2.90;;
10509;SDS011;5303;53.266;10.410;2023-07-31T01:31:46;5.67;;;2.80;;
10509;SDS011;5303;53.266;10.410;2023-07-31T01:34:15;5.43;;;2.70;;
10509;SDS011;5303;53.266;10.410;2023-07-31T01:36:43;5.13;;;2.60;;
10509;SDS011;5303;53.266;10.410;2023-07-31T01:39:09;5.33;;;2.70;;
10509;SDS011;5303;53.266;10.410;2023-07-31T01:41:34;4.53;;;2.47;;
10509;SDS011;5303;53.266;10.410;2023-07-31T01:43:59;5.53;;;3.07;;
10509;SDS011;5303;53.266;10.410;2023-07-31T01:46:25;4.53;;;2.80;;
10509;SDS011;5303;53.266;10.410;2023-07-31T01:48:50;6.10;;;3.00;;
10509;SDS011;5303;53.266;10.410;2023-07-31T01:51:15;6.23;;;2.90;;
10509;SDS011;5303;53.266;10.410;2023-07-31T01:53:41;5.63;;;2.63;;
10509;SDS011;5303;53.266;10.410;2023-07-31T01:56:06;5.43;;;2.50;;
10509;SDS011;5303;53.266;10.410;2023-07-31T01:58:31;4.90;;;2.77;;
10509;SDS011;5303;53.266;10.410;2023-07-31T02:00:57;6.40;;;3.03;;
10509;SDS011;5303;53.266;10.410;2023-07-31T02:03:22;6.50;;;2.93;;
10509;SDS011;5303;53.266;10.410;2023-07-31T02:05:48;5.97;;;2.97;;
10509;SDS011;5303;53.266;10.410;2023-07-31T02:08:14;4.57;;;2.67;;
10509;SDS011;5303;53.266;10.410;2023-07-31T02:10:39;7.00;;;2.70;;
10509;SDS011;5303;53.266;10.410;2023-07-31T02:13:05;7.73;;;3.03;;
10509;SDS011;5303;53.266;10.410;2023-07-31T02:15:30;5.73;;;3.00;;
10509;SDS011;5303;53.266;10.410;2023-07-31T02:17:56;3.03;;;2.60;;
10509;SDS011;5303;53.266;10.410;2023-07-31T02:20:21;5.80;;;3.17;;
10509;SDS011;5303;53.266;10.410;2023-07-31T02:22:46;5.80;;;3.00;;
10509;SDS011;5303;53.266;10.410;2023-07-31T02:25:12;4.60;;;3.00;;
10509;SDS011;5303;53.266;10.410;2023-07-31T02:27:37;5.63;;;3.20;;
10509;SDS011;5303;53.266;10.410;2023-07-31T02:30:02;4.50;;;2.90;;
10509;SDS011;5303;53.266;10.410;2023-07-31T02:32:28;4.57;;;3.10;;
10509;SDS011;5303;53.266;10.410;2023-07-31T02:34:53;7.03;;;3.53;;
10509;SDS011;5303;53.266;10.410;2023-07-31T02:37:19;7.13;;;3.37;;
10509;SDS011;5303;53.266;10.410;2023-07-31T02:39:44;7.37;;;4.10;;
10509;SDS011;5303;53.266;10.410;2023-07-31T02:42:09;7.40;;;3.97;;
10509;SDS011;5303;53.266;10.410;2023-07-31T02:44:34;6.60;;;3.60;;
10509;SDS011;5303;53.266;10.410;2023-07-31T02:47:00;7.53;;;3.93;;
10509;SDS011;5303;53.266;10.410;2023-07-31T02:49:25;6.53;;;3.70;;
10509;SDS011;5303;53.266;10.410;2023-07-31T02:51:50;7.43;;;4.40;;
10509;SDS011;5303;53.266;10.410;2023-07-31T02:54:15;5.63;;;4.10;;
10509;SDS011;5303;53.266;10.410;2023-07-31T02:56:41;5.63;;;4.50;;
10509;SDS011;5303;53.266;10.410;2023-07-31T02:59:06;5.90;;;4.50;;
10509;SDS011;5303;53.266;10.410;2023-07-31T03:01:31;6.10;;;4.73;;
10509;SDS011;5303;53.266;10.410;2023-07-31T03:03:56;7.30;;;4.57;;
10509;SDS011;5303;53.266;10.410;2023-07-31T03:06:22;5.60;;;4.83;;
10509;SDS011;5303;53.266;10.410;2023-07-31T03:08:47;8.30;;;4.90;;
10509;SDS011;5303;53.266;10.410;2023-07-31T03:11:12;7.97;;;5.63;;
10509;SDS011;5303;53.266;10.410;2023-07-31T03:13:38;5.63;;;5.10;;
10509;SDS011;5303;53.266;10.410;2023-07-31T03:16:03;10.70;;;5.87;;
10509;SDS011;5303;53.266;10.410;2023-07-31T03:18:28;8.47;;;5.03;;
10509;SDS011;5303;53.266;10.410;2023-07-31T03:20:54;6.27;;;5.10;;
10509;SDS011;5303;53.266;10.410;2023-07-31T03:23:19;7.90;;;6.27;;
10509;SDS011;5303;53.266;10.410;2023-07-31T03:26:00;6.50;;;5.43;;
10509;SDS011;5303;53.266;10.410;2023-07-31T03:28:30;6.67;;;5.60;;
10509;SDS011;5303;53.266;10.410;2023-07-31T03:30:59;9.50;;;5.63;;
10509;SDS011;5303;53.266;10.410;2023-07-31T03:33:25;7.70;;;5.80;;
10509;SDS011;5303;53.266;10.410;2023-07-31T03:35:50;6.13;;;5.20;;
10509;SDS011;5303;53.266;10.410;2023-07-31T03:38:16;6.53;;;5.87;;
10509;SDS011;5303;53.266;10.410;2023-07-31T03:40:41;8.33;;;5.90;;
10509;SDS011;5303;53.266;10.410;2023-07-31T03:43:06;6.67;;;5.13;;
10509;SDS011;5303;53.266;10.410;2023-07-31T03:45:32;7.83;;;5.70;;
10509;SDS011;5303;53.266;10.410;2023-07-31T03:47:57;7.40;;;5.43;;
10509;SDS011;5303;53.266;10.410;2023-07-31T03:50:22;5.57;;;5.03;;
10509;SDS011;5303;53.266;10.410;2023-07-31T03:52:48;5.60;;;5.03;;
10509;SDS011;5303;53.266;10.410;2023-07-31T03:55:13;5.43;;;4.93;;
10509;SDS011;5303;53.266;10.410;2023-07-31T03:57:38;5.07;;;4.57;;
10509;SDS011;5303;53.266;10.410;2023-07-31T04:00:05;5.70;;;4.70;;
10509;SDS011;5303;53.266;10.410;2023-07-31T04:02:31;5.23;;;4.73;;
10509;SDS011;5303;53.266;10.410;2023-07-31T04:04:56;5.00;;;4.50;;
10509;SDS011;5303;53.266;10.410;2023-07-31T04:07:24;6.00;;;4.70;;
10509;SDS011;5303;53.266;10.410;2023-07-31T04:09:49;5.40;;;4.67;;
10509;SDS011;5303;53.266;10.410;2023-07-31T04:12:14;5.70;;;5.10;;
10509;SDS011;5303;53.266;10.410;2023-07-31T04:14:39;6.87;;;5.30;;
10509;SDS011;5303;53.266;10.410;2023-07-31T04:17:05;6.50;;;5.27;;
10509;SDS011;5303;53.266;10.410;2023-07-31T04:19:30;7.73;;;5.23;;
10509;SDS011;5303;53.266;10.410;2023-07-31T04:21:56;5.90;;;5.37;;
10509;SDS011;5303;53.266;10.410;2023-07-31T04:24:21;6.00;;;5.40;;
10509;SDS011;5303;53.266;10.410;2023-07-31T04:26:52;7.27;;;5.73;;
10509;SDS011;5303;53.266;10.410;2023-07-31T04:29:18;5.50;;;4.93;;
10509;SDS011;5303;53.266;10.410;2023-07-31T04:31:43;6.37;;;5.27;;
10509;SDS011;5303;53.266;10.410;2023-07-31T04:34:10;5.87;;;5.37;;
10509;SDS011;5303;53.266;10.410;2023-07-31T04:36:36;6.63;;;5.50;;
10509;SDS011;5303;53.266;10.410;2023-07-31T04:39:01;7.00;;;5.60;;
10509;SDS011;5303;53.266;10.410;2023-07-31T04:41:27;6.50;;;5.50;;
10509;SDS011;5303;53.266;10.410;2023-07-31T04:43:53;6.47;;;5.77;;
10509;SDS011;5303;53.266;10.410;2023-07-31T04:46:18;6.57;;;5.80;;
10509;SDS011;5303;53.266;10.410;2023-07-31T04:48:43;6.00;;;5.30;;
10509;SDS011;5303;53.266;10.410;2023-07-31T04:51:08;6.47;;;5.87;;
10509;SDS011;5303;53.266;10.410;2023-07-31T04:53:34;6.77;;;5.77;;
10509;SDS011;5303;53.266;10.410;2023-07-31T04:56:00;7.10;;;5.60;;
10509;SDS011;5303;53.266;10.410;2023-07-31T04:58:25;5.97;;;5.37;;
10509;SDS011;5303;53.266;10.410;2023-07-31T05:00:51;5.77;;;5.27;;
10509;SDS011;5303;53.266;10.410;2023-07-31T05:03:16;7.13;;;5.03;;
10509;SDS011;5303;53.266;10.410;2023-07-31T05:05:42;5.60;;;5.07;;
10509;SDS011;5303;53.266;10.410;2023-07-31T05:08:07;5.93;;;4.90;;
10509;SDS011;5303;53.266;10.410;2023-07-31T05:10:32;5.40;;;4.80;;
10509;SDS011;5303;53.266;10.410;2023-07-31T05:13:04;6.33;;;4.87;;
10509;SDS011;5303;53.266;10.410;2023-07-31T05:15:29;5.87;;;5.27;;
10509;SDS011;5303;53.266;10.410;2023-07-31T05:17:55;6.10;;;5.50;;
10509;SDS011;5303;53.266;10.410;2023-07-31T05:20:20;5.47;;;4.97;;
10509;SDS011;5303;53.266;10.410;2023-07-31T05:22:46;6.43;;;5.40;;
10509;SDS011;5303;53.266;10.410;2023-07-31T05:25:11;6.23;;;4.70;;
10509;SDS011;5303;53.266;10.410;2023-07-31T05:27:36;6.07;;;5.40;;
10509;SDS011;5303;53.266;10.410;2023-07-31T05:30:02;5.37;;;4.87;;
10509;SDS011;5303;53.266;10.410;2023-07-31T05:32:28;5.23;;;4.73;;
10509;SDS011;5303;53.266;10.410;2023-07-31T05:34:53;5.53;;;4.47;;
10509;SDS011;5303;53.266;10.410;2023-07-31T05:37:18;6.23;;;4.87;;
10509;SDS011;5303;53.266;10.410;2023-07-31T05:39:44;5.20;;;4.53;;
10509;SDS011;5303;53.266;10.410;2023-07-31T05:42:09;5.10;;;4.43;;
10509;SDS011;5303;53.266;10.410;2023-07-31T05:44:35;4.97;;;4.47;;
10509;SDS011;5303;53.266;10.410;2023-07-31T05:47:00;4.70;;;4.10;;
10509;SDS011;5303;53.266;10.410;2023-07-31T05:49:25;4.23;;;3.90;;
10509;SDS011;5303;53.266;10.410;2023-07-31T05:51:51;4.57;;;4.13;;
10509;SDS011;5303;53.266;10.410;2023-07-31T05:54:16;4.70;;;4.30;;
10509;SDS011;5303;53.266;10.410;2023-07-31T05:56:41;4.57;;;4.13;;
10509;SDS011;5303;53.266;10.410;2023-07-31T05:59:08;4.50;;;4.10;;
10509;SDS011;5303;53.266;10.410;2023-07-31T06:01:34;6.77;;;4.60;;
10509;SDS011;5303;53.266;10.410;2023-07-31T06:03:59;4.67;;;4.27;;
10509;SDS011;5303;53.266;10.410;2023-07-31T06:06:24;4.60;;;3.80;;
10509;SDS011;5303;53.266;10.410;2023-07-31T06:08:49;4.50;;;4.10;;
10509;SDS011;5303;53.266;10.410;2023-07-31T06:11:15;4.10;;;3.80;;
10509;SDS011;5303;53.266;10.410;2023-07-31T06:13:40;4.40;;;4.00;;
10509;SDS011;5303;53.266;10.410;2023-07-31T06:16:05;3.53;;;3.23;;
10509;SDS011;5303;53.266;10.410;2023-07-31T06:18:33;4.23;;;3.50;;
10509;SDS011;5303;53.266;10.410;2023-07-31T06:20:59;3.50;;;3.20;;
10509;SDS011;5303;53.266;10.410;2023-07-31T06:23:24;3.40;;;3.10;;
10509;SDS011;5303;53.266;10.410;2023-07-31T06:25:49;3.47;;;3.17;;
10509;SDS011;5303;53.266;10.410;2023-07-31T06:28:15;4.67;;;3.17;;
10509;SDS011;5303;53.266;10.410;2023-07-31T06:30:40;3.40;;;2.90;;
10509;SDS011;5303;53.266;10.410;2023-07-31T06:33:05;3.30;;;3.00;;
10509;SDS011;5303;53.266;10.410;2023-07-31T06:35:30;3.57;;;2.70;;
10509;SDS011;5303;53.266;10.410;2023-07-31T06:37:56;4.87;;;3.07;;
10509;SDS011;5303;53.266;10.410;2023-07-31T06:40:21;5.30;;;2.90;;
10509;SDS011;5303;53.266;10.410;2023-07-31T06:42:47;2.60;;;2.40;;
10509;SDS011;5303;53.266;10.410;2023-07-31T06:45:12;2.93;;;2.57;;
10509;SDS011;5303;53.266;10.410;2023-07-31T06:47:37;3.90;;;2.70;;
10509;SDS011;5303;53.266;10.410;2023-07-31T06:50:03;2.70;;;2.30;;
10509;SDS011;5303;53.266;10.410;2023-07-31T06:52:28;2.27;;;2.07;;
10509;SDS011;5303;53.266;10.410;2023-07-31T06:55:04;2.50;;;2.30;;
10509;SDS011;5303;53.266;10.410;2023-07-31T06:57:42;2.50;;;2.30;;
10509;SDS011;5303;53.266;10.410;2023-07-31T07:00:08;3.37;;;2.67;;
10509;SDS011;5303;53.266;10.410;2023-07-31T07:02:33;2.43;;;2.23;;
10509;SDS011;5303;53.266;10.410;2023-07-31T07:04:59;2.23;;;2.03;;
10509;SDS011;5303;53.266;10.410;2023-07-31T07:07:24;4.07;;;2.20;;
10509;SDS011;5303;53.266;10.410;2023-07-31T07:09:49;2.60;;;2.10;;
10509;SDS011;5303;53.266;10.410;2023-07-31T07:12:15;2.20;;;2.00;;
10509;SDS011;5303;53.266;10.410;2023-07-31T07:14:40;2.00;;;1.80;;
10509;SDS011;5303;53.266;10.410;2023-07-31T07:17:05;3.27;;;2.20;;
10509;SDS011;5303;53.266;10.410;2023-07-31T07:19:31;2.20;;;2.00;;
10509;SDS011;5303;53.266;10.410;2023-07-31T07:21:56;2.60;;;2.07;;
10509;SDS011;5303;53.266;10.410;2023-07-31T07:24:21;2.40;;;1.80;;
10509;SDS011;5303;53.266;10.410;2023-07-31T07:26:47;2.37;;;1.80;;
10509;SDS011;5303;53.266;10.410;2023-07-31T07:29:12;5.73;;;1.97;;
10509;SDS011;5303;53.266;10.410;2023-07-31T07:31:37;2.00;;;1.80;;
10509;SDS011;5303;53.266;10.410;2023-07-31T07:34:02;1.63;;;1.53;;
10509;SDS011;5303;53.266;10.410;2023-07-31T07:36:28;2.13;;;1.93;;
10509;SDS011;5303;53.266;10.410;2023-07-31T07:38:53;1.70;;;1.60;;
10509;SDS011;5303;53.266;10.410;2023-07-31T07:41:18;3.97;;;1.87;;
10509;SDS011;5303;53.266;10.410;2023-07-31T07:43:43;2.60;;;1.70;;
10509;SDS011;5303;53.266;10.410;2023-07-31T07:46:09;2.60;;;1.80;;
10509;SDS011;5303;53.266;10.410;2023-07-31T07:48:34;2.17;;;1.97;;
10509;SDS011;5303;53.266;10.410;2023-07-31T07:50:59;4.33;;;1.70;;
10509;SDS011;5303;53.266;10.410;2023-07-31T07:53:25;1.80;;;1.50;;
10509;SDS011;5303;53.266;10.410;2023-07-31T07:55:50;2.67;;;1.60;;
10509;SDS011;5303;53.266;10.410;2023-07-31T07:58:15;4.00;;;1.73;;
10509;SDS011;5303;53.266;10.410;2023-07-31T08:00:40;2.30;;;1.90;;
10509;SDS011;5303;53.266;10.410;2023-07-31T08:03:06;1.63;;;1.53;;
10509;SDS011;5303;53.266;10.410;2023-07-31T08:05:31;1.93;;;1.50;;
10509;SDS011;5303;53.266;10.410;2023-07-31T08:07:59;3.83;;;1.40;;
10509;SDS011;5303;53.266;10.410;2023-07-31T08:10:24;2.23;;;1.40;;
10509;SDS011;5303;53.266;10.410;2023-07-31T08:12:49;1.63;;;1.30;;
10509;SDS011;5303;53.266;10.410;2023-07-31T08:15:15;1.47;;;1.33;;
10509;SDS011;5303;53.266;10.410;2023-07-31T08:17:40;1.60;;;1.50;;
10509;SDS011;5303;53.266;10.410;2023-07-31T08:20:05;1.33;;;1.23;;
10509;SDS011;5303;53.266;10.410;2023-07-31T08:22:31;2.53;;;1.40;;
10509;SDS011;5303;53.266;10.410;2023-07-31T08:24:57;1.43;;;1.33;;
10509;SDS011;5303;53.266;10.410;2023-07-31T08:27:22;1.57;;;1.47;;
10509;SDS011;5303;53.266;10.410;2023-07-31T08:29:47;1.77;;;1.60;;
10509;SDS011;5303;53.266;10.410;2023-07-31T08:32:12;1.33;;;1.23;;
10509;SDS011;5303;53.266;10.410;2023-07-31T08:34:38;2.10;;;1.47;;
10509;SDS011;5303;53.266;10.410;2023-07-31T08:37:03;1.37;;;1.27;;
10509;SDS011;5303;53.266;10.410;2023-07-31T08:39:28;1.30;;;1.20;;
10509;SDS011;5303;53.266;10.410;2023-07-31T08:41:57;1.33;;;1.23;;
10509;SDS011;5303;53.266;10.410;2023-07-31T08:44:24;1.63;;;1.40;;
10509;SDS011;5303;53.266;10.410;2023-07-31T08:46:49;2.13;;;1.30;;
10509;SDS011;5303;53.266;10.410;2023-07-31T08:49:15;2.03;;;1.30;;
10509;SDS011;5303;53.266;10.410;2023-07-31T08:51:42;1.47;;;1.30;;
10509;SDS011;5303;53.266;10.410;2023-07-31T08:54:09;3.13;;;1.37;;
10509;SDS011;5303;53.266;10.410;2023-07-31T08:56:34;1.43;;;1.30;;
10509;SDS011;5303;53.266;10.410;2023-07-31T08:59:01;1.20;;;1.10;;
10509;SDS011;5303;53.266;10.410;2023-07-31T09:01:29;1.40;;;1.30;;
10509;SDS011;5303;53.266;10.410;2023-07-31T09:03:56;1.20;;;1.10;;
10509;SDS011;5303;53.266;10.410;2023-07-31T09:06:24;1.10;;;1.00;;
10509;SDS011;5303;53.266;10.410;2023-07-31T09:08:51;1.20;;;1.10;;
10509;SDS011;5303;53.266;10.410;2023-07-31T09:11:17;1.00;;;1.00;;
10509;SDS011;5303;53.266;10.410;2023-07-31T09:13:43;1.60;;;0.90;;
10509;SDS011;5303;53.266;10.410;2023-07-31T09:16:10;0.93;;;0.93;;
10509;SDS011;5303;53.266;10.410;2023-07-31T09:18:55;1.00;;;1.00;;
10509;SDS011;5303;53.266;10.410;2023-07-31T09:21:21;1.10;;;1.00;;
10509;SDS011;5303;53.266;10.410;2023-07-31T09:23:48;1.37;;;1.20;;
10509;SDS011;5303;53.266;10.410;2023-07-31T09:28:55;1.47;;;1.30;;
10509;SDS011;5303;53.266;10.410;2023-07-31T09:31:33;1.40;;;1.30;;
10509;SDS011;5303;53.266;10.410;2023-07-31T09:34:04;3.03;;;1.73;;
10509;SDS011;5303;53.266;10.410;2023-07-31T09:36:29;2.20;;;1.83;;
10509;SDS011;5303;53.266;10.410;2023-07-31T09:38:56;3.43;;;1.97;;
10509;SDS011;5303;53.266;10.410;2023-07-31T09:41:27;2.50;;;2.00;;
10509;SDS011;5303;53.266;10.410;2023-07-31T09:43:53;2.53;;;2.20;;
10509;SDS011;5303;53.266;10.410;2023-07-31T09:46:19;3.83;;;3.00;;
10509;SDS011;5303;53.266;10.410;2023-07-31T09:48:45;5.10;;;3.43;;
10509;SDS011;5303;53.266;10.410;2023-07-31T09:51:11;4.87;;;3.70;;
10509;SDS011;5303;53.266;10.410;2023-07-31T09:53:36;5.87;;;3.90;;
10509;SDS011;5303;53.266;10.410;2023-07-31T09:56:01;5.80;;;3.90;;
10509;SDS011;5303;53.266;10.410;2023-07-31T09:58:28;6.37;;;4.97;;
10509;SDS011;5303;53.266;10.410;2023-07-31T10:00:53;8.03;;;5.70;;
10509;SDS011;5303;53.266;10.410;2023-07-31T10:03:21;8.67;;;5.77;;
10509;SDS011;5303;53.266;10.410;2023-07-31T10:05:49;7.63;;;5.40;;
10509;SDS011;5303;53.266;10.410;2023-07-31T10:08:16;11.00;;;6.73;;
10509;SDS011;5303;53.266;10.410;2023-07-31T10:10:43;11.57;;;6.10;;
10509;SDS011;5303;53.266;10.410;2023-07-31T10:13:09;10.20;;;6.20;;
10509;SDS011;5303;53.266;10.410;2023-07-31T10:15:36;9.83;;;5.83;;
10509;SDS011;5303;53.266;10.410;2023-07-31T10:18:01;9.13;;;6.37;;
10509;SDS011;5303;53.266;10.410;2023-07-31T10:20:27;12.57;;;7.30;;
10509;SDS011;5303;53.266;10.410;2023-07-31T10:22:54;9.73;;;6.23;;
10509;SDS011;5303;53.266;10.410;2023-07-31T10:25:20;13.87;;;7.13;;
10509;SDS011;5303;53.266;10.410;2023-07-31T10:27:47;10.03;;;6.97;;
10509;SDS011;5303;53.266;10.410;2023-07-31T10:30:17;10.23;;;6.50;;
10509;SDS011;5303;53.266;10.410;2023-07-31T10:32:43;13.53;;;6.73;;
10509;SDS011;5303;53.266;10.410;2023-07-31T10:35:10;13.97;;;7.47;;
10509;SDS011;5303;53.266;10.410;2023-07-31T10:37:37;13.50;;;7.30;;
10509;SDS011;5303;53.266;10.410;2023-07-31T10:40:05;10.53;;;6.57;;
10509;SDS011;5303;53.266;10.410;2023-07-31T10:44:59;11.33;;;6.10;;
10509;SDS011;5303;53.266;10.410;2023-07-31T10:47:30;9.90;;;6.40;;
10509;SDS011;5303;53.266;10.410;2023-07-31T10:50:29;11.47;;;5.90;;
10509;SDS011;5303;53.266;10.410;2023-07-31T10:52:49;9.60;;;6.43;;
10509;SDS011;5303;53.266;10.410;2023-07-31T10:55:32;9.77;;;6.03;;
10509;SDS011;5303;53.266;10.410;2023-07-31T10:58:09;9.90;;;6.00;;
10509;SDS011;5303;53.266;10.410;2023-07-31T11:00:40;8.67;;;5.53;;
10509;SDS011;5303;53.266;10.410;2023-07-31T11:03:07;9.60;;;5.47;;
10509;SDS011;5303;53.266;10.410;2023-07-31T11:10:37;10.00;;;5.73;;
10509;SDS011;5303;53.266;10.410;2023-07-31T11:13:04;12.63;;;6.20;;
10509;SDS011;5303;53.266;10.410;2023-07-31T11:15:29;10.63;;;5.93;;
10509;SDS011;5303;53.266;10.410;2023-07-31T11:17:55;8.03;;;5.30;;
10509;SDS011;5303;53.266;10.410;2023-07-31T11:20:23;8.43;;;5.40;;
10509;SDS011;5303;53.266;10.410;2023-07-31T11:22:49;7.83;;;4.67;;
10509;SDS011;5303;53.266;10.410;2023-07-31T11:25:14;7.10;;;5.20;;
10509;SDS011;5303;53.266;10.410;2023-07-31T11:27:39;6.13;;;4.67;;
10509;SDS011;5303;53.266;10.410;2023-07-31T11:30:06;9.87;;;4.77;;
10509;SDS011;5303;53.266;10.410;2023-07-31T11:32:32;6.77;;;4.87;;
10509;SDS011;5303;53.266;10.410;2023-07-31T11:34:57;5.83;;;4.07;;
10509;SDS011;5303;53.266;10.410;2023-07-31T11:37:23;7.37;;;4.20;;
10509;SDS011;5303;53.266;10.410;2023-07-31T11:40:00;5.83;;;4.40;;
10509;SDS011;5303;53.266;10.410;2023-07-31T11:42:26;7.80;;;4.10;;
10509;SDS011;5303;53.266;10.410;2023-07-31T11:44:52;6.10;;;4.20;;
10509;SDS011;5303;53.266;10.410;2023-07-31T11:47:17;6.27;;;3.70;;
10509;SDS011;5303;53.266;10.410;2023-07-31T11:49:43;5.80;;;3.93;;
10509;SDS011;5303;53.266;10.410;2023-07-31T11:52:09;4.97;;;3.37;;
10509;SDS011;5303;53.266;10.410;2023-07-31T11:54:35;4.83;;;3.43;;
10509;SDS011;5303;53.266;10.410;2023-07-31T11:57:01;5.30;;;3.70;;
10509;SDS011;5303;53.266;10.410;2023-07-31T11:59:27;4.53;;;3.10;;
10509;SDS011;5303;53.266;10.410;2023-07-31T12:01:53;3.80;;;2.90;;
10509;SDS011;5303;53.266;10.410;2023-07-31T12:04:19;3.73;;;2.73;;
10509;SDS011;5303;53.266;10.410;2023-07-31T12:06:46;3.77;;;2.53;;
10509;SDS011;5303;53.266;10.410;2023-07-31T12:09:17;3.17;;;2.77;;
10509;SDS011;5303;53.266;10.410;2023-07-31T12:11:43;3.33;;;2.83;;
10509;SDS011;5303;53.266;10.410;2023-07-31T12:14:25;3.50;;;2.50;;
10509;SDS011;5303;53.266;10.410;2023-07-31T12:16:55;3.93;;;2.90;;
10509;SDS011;5303;53.266;10.410;2023-07-31T12:19:22;2.47;;;2.23;;
10509;SDS011;5303;53.266;10.410;2023-07-31T12:21:47;3.93;;;2.70;;
10509;SDS011;5303;53.266;10.410;2023-07-31T12:24:14;3.30;;;2.80;;
10509;SDS011;5303;53.266;10.410;2023-07-31T12:26:40;3.67;;;2.70;;
10509;SDS011;5303;53.266;10.410;2023-07-31T12:29:06;3.73;;;2.97;;
10509;SDS011;5303;53.266;10.410;2023-07-31T12:31:33;3.47;;;2.80;;
10509;SDS011;5303;53.266;10.410;2023-07-31T12:33:59;2.97;;;2.50;;
10509;SDS011;5303;53.266;10.410;2023-07-31T12:36:24;2.50;;;2.30;;
10509;SDS011;5303;53.266;10.410;2023-07-31T12:38:50;3.00;;;2.70;;
10509;SDS011;5303;53.266;10.410;2023-07-31T12:41:17;3.43;;;3.00;;
10509;SDS011;5303;53.266;10.410;2023-07-31T12:43:43;4.93;;;2.80;;
10509;SDS011;5303;53.266;10.410;2023-07-31T12:46:09;3.80;;;2.60;;
10509;SDS011;5303;53.266;10.410;2023-07-31T12:48:35;3.33;;;2.43;;
10509;SDS011;5303;53.266;10.410;2023-07-31T12:51:02;2.50;;;2.30;;
10509;SDS011;5303;53.266;10.410;2023-07-31T12:53:27;4.03;;;2.73;;
10509;SDS011;5303;53.266;10.410;2023-07-31T12:55:53;2.50;;;2.30;;
10509;SDS011;5303;53.266;10.410;2023-07-31T12:58:18;2.47;;;2.27;;
10509;SDS011;5303;53.266;10.410;2023-07-31T13:00:43;2.80;;;2.60;;
10509;SDS011;5303;53.266;10.410;2023-07-31T13:03:09;3.20;;;2.33;;
10509;SDS011;5303;53.266;10.410;2023-07-31T13:05:34;3.07;;;2.20;;
10509;SDS011;5303;53.266;10.410;2023-07-31T13:07:59;4.83;;;2.53;;
10509;SDS011;5303;53.266;10.410;2023-07-31T13:10:25;3.80;;;2.43;;
10509;SDS011;5303;53.266;10.410;2023-07-31T13:12:51;2.80;;;2.53;;
10509;SDS011;5303;53.266;10.410;2023-07-31T13:15:17;3.37;;;3.00;;
10509;SDS011;5303;53.266;10.410;2023-07-31T13:17:42;3.27;;;2.80;;
10509;SDS011;5303;53.266;10.410;2023-07-31T13:20:07;3.00;;;2.70;;
10509;SDS011;5303;53.266;10.410;2023-07-31T13:22:33;2.90;;;2.50;;
10509;SDS011;5303;53.266;10.410;2023-07-31T13:24:58;3.13;;;2.60;;
10509;SDS011;5303;53.266;10.410;2023-07-31T13:27:24;4.40;;;2.77;;
10509;SDS011;5303;53.266;10.410;2023-07-31T13:29:49;3.13;;;2.50;;
10509;SDS011;5303;53.266;10.410;2023-07-31T13:32:16;2.50;;;2.30;;
10509;SDS011;5303;53.266;10.410;2023-07-31T13:34:42;3.27;;;2.30;;
10509;SDS011;5303;53.266;10.410;2023-07-31T13:37:07;4.37;;;2.67;;
10509;SDS011;5303;53.266;10.410;2023-07-31T13:39:32;2.67;;;2.47;;
10509;SDS011;5303;53.266;10.410;2023-07-31T13:41:58;2.30;;;2.10;;
10509;SDS011;5303;53.266;10.410;2023-07-31T13:44:24;2.27;;;2.07;;
10509;SDS011;5303;53.266;10.410;2023-07-31T13:46:49;2.13;;;2.00;;
10509;SDS011;5303;53.266;10.410;2023-07-31T13:49:14;5.57;;;2.07;;
10509;SDS011;5303;53.266;10.410;2023-07-31T13:51:40;2.20;;;2.00;;
10509;SDS011;5303;53.266;10.410;2023-07-31T13:54:05;2.13;;;1.60;;
10509;SDS011;5303;53.266;10.410;2023-07-31T13:56:31;2.27;;;2.07;;
10509;SDS011;5303;53.266;10.410;2023-07-31T13:58:57;1.93;;;1.83;;
10509;SDS011;5303;53.266;10.410;2023-07-31T14:01:22;1.80;;;1.70;;
10509;SDS011;5303;53.266;10.410;2023-07-31T14:03:47;2.57;;;1.90;;
10509;SDS011;5303;53.266;10.410;2023-07-31T14:06:13;4.03;;;2.00;;
10509;SDS011;5303;53.266;10.410;2023-07-31T14:08:38;1.97;;;1.87;;
10509;SDS011;5303;53.266;10.410;2023-07-31T14:11:04;2.47;;;2.27;;
10509;SDS011;5303;53.266;10.410;2023-07-31T14:13:29;2.80;;;1.90;;
10509;SDS011;5303;53.266;10.410;2023-07-31T14:15:54;3.00;;;1.90;;
10509;SDS011;5303;53.266;10.410;2023-07-31T14:18:19;2.37;;;2.07;;
10509;SDS011;5303;53.266;10.410;2023-07-31T14:20:45;3.27;;;1.87;;
10509;SDS011;5303;53.266;10.410;2023-07-31T14:23:10;1.83;;;1.73;;
10509;SDS011;5303;53.266;10.410;2023-07-31T14:25:35;1.97;;;1.87;;
10509;SDS011;5303;53.266;10.410;2023-07-31T14:28:01;2.77;;;1.80;;
10509;SDS011;5303;53.266;10.410;2023-07-31T14:30:26;3.73;;;2.17;;
10509;SDS011;5303;53.266;10.410;2023-07-31T14:32:51;3.10;;;2.23;;
10509;SDS011;5303;53.266;10.410;2023-07-31T14:35:16;2.57;;;2.37;;
10509;SDS011;5303;53.266;10.410;2023-07-31T14:37:42;2.77;;;2.50;;
10509;SDS011;5303;53.266;10.410;2023-07-31T14:40:10;2.77;;;2.57;;
10509;SDS011;5303;53.266;10.410;2023-07-31T14:42:36;3.40;;;2.70;;
10509;SDS011;5303;53.266;10.410;2023-07-31T14:45:03;2.93;;;2.70;;
10509;SDS011;5303;53.266;10.410;2023-07-31T14:47:29;3.17;;;2.83;;
10509;SDS011;5303;53.266;10.410;2023-07-31T14:49:56;3.03;;;2.83;;
10509;SDS011;5303;53.266;10.410;2023-07-31T14:52:21;3.10;;;2.80;;
10509;SDS011;5303;53.266;10.410;2023-07-31T14:54:46;3.33;;;2.80;;
10509;SDS011;5303;53.266;10.410;2023-07-31T14:57:12;3.53;;;3.23;;